Detall de PIREP

Printer-friendly versionPDF version

[2009/01/11 16:05:00]
Flight IATA:CT0001
Pilot Number:041
Company ICAO:CAT
Aircraft Type:AT72/F
PAX:35
Departing Airport: LEVC
Destination Airport: LEAL
Alternate Airport:LELC
Online: VATSIM
Route:ASTRO1G ASTRO
Flight Level:FL090
No Slew and time accel
No pause
Crash detect
Detect pilot in Cockpit between each 30 and 45 minutes
16:05 Zero fuel Weight: 38423 Lbs, Fuel Weight: 5440 Lbs
16:05 VATSIM:LEVC 111530Z VRB02KT 9999 FEW030 10/06 Q1028 NOSIG
16:05 VATSIM:LEAL 111530Z 02006KT 340V080 9999 FEW022 15/04 Q1026 NOSIG
16:06 VOICE CATALONIAN
16:06 Parking Brakes off
16:17 Take-off
16:17 Take off Weight: 43763 Lbs
16:17 Wind: 253º @ 003 Knots Heading: 115º
16:17 POS N39º 29´ 19´´ W000º 28´ 48´´
16:17 Gear Up: 137 Knots
16:17 Flaps:1 at 138 Knots
16:18 Flaps:0 at 188 Knots
16:29 TOC
16:29 Fuel Weight: 4935 Lb
16:32 Wind:076º@017 Knots Heading: 230º Ground Speed: 2
88 Knots Altitude 9409 ft
16:34 TOD
16:34 Fuel Weight: 4810 Lb
16:47 Wind:104º@030 Knots Heading: 085º Ground Speed: 168 Knots Altitude 5882 ft
16:52 Flaps:1 at 157 Knots
16:52 Gear Down: 148 Knots
16:53 Flaps:2 at 132 Knots
16:54 TouchDown:Rate -229 ft/min Speed: 100 Knots
16:54 Flaps:0 at 95 Knots
16:54 VATSIM:LEAL 111630Z 03008KT 350V060 9999 FEW022 13/04 Q1026 NOSIG
16:54 Land
16:54 Wind:023º@005 Knots
16:54 Heading: 097º
16:54 Flight Duration: 00:37
16:54 Landing Weight: 42916 Lbs
16:54 POS N38º 16´ 56´´ W000º 33´ 33´´
16:58 Parking brakes on
16:58 Block to Block Duration: 00:52
16:58 Final Fuel: 4459 Lbls
16:58 Spent Fuel: 981 Lbls
16:58 Flight Length: 135 NM
16:58 TOD Land Length: 65 NM

Exportar CSV

Powered by Drupal - Modified by Danger4k